Time;durP1;ratioP1;P1;durP2;ratioP2;P2;SDS_P1;SDS_P2;PMS_P1;PMS_P2;Temp;Humidity;BMP_temperature;BMP_pressure;BME280_temperature;BME280_humidity;BME280_pressure;Samples;Min_cycle;Max_cycle;Signal;HPM_P1;HPM_P2
2022/07/13 00:00:03;;;;;;;4.68;1.75;;;;;;;19.52;100.00;97269.91;5027482;28;20047;-72
2022/07/13 00:02:29;;;;;;;4.78;2.00;;;;;;;19.42;100.00;97276.25;5022280;28;20064;-72
2022/07/13 00:04:55;;;;;;;3.33;1.80;;;;;;;19.38;100.00;97271.69;5024219;28;20152;-72
2022/07/13 00:07:20;;;;;;;3.67;2.00;;;;;;;19.40;100.00;97267.59;5024764;28;20112;-72
2022/07/13 00:09:45;;;;;;;3.35;1.95;;;;;;;19.27;100.00;97273.66;5027445;28;20033;-72
2022/07/13 00:12:11;;;;;;;3.17;1.90;;;;;;;19.17;100.00;97274.56;5024848;28;20461;-72
2022/07/13 00:14:37;;;;;;;3.97;1.80;;;;;;;19.14;100.00;97263.47;5024150;28;20170;-72
2022/07/13 00:17:02;;;;;;;4.90;1.98;;;;;;;19.23;100.00;97258.25;5027532;28;20065;-72
2022/07/13 00:19:27;;;;;;;4.07;1.85;;;;;;;19.30;100.00;97262.28;5023213;28;20041;-72
2022/07/13 00:21:54;;;;;;;3.33;1.80;;;;;;;19.40;100.00;97255.94;5025590;28;20420;-72
2022/07/13 00:24:21;;;;;;;3.15;1.90;;;;;;;19.40;100.00;97262.16;5024526;28;20492;-72
2022/07/13 00:26:46;;;;;;;2.97;1.98;;;;;;;19.28;100.00;97253.59;5027621;28;20575;-72
2022/07/13 00:29:11;;;;;;;2.90;1.80;;;;;;;19.13;100.00;97254.53;5023105;28;20037;-72
2022/07/13 00:31:37;;;;;;;3.45;1.80;;;;;;;19.10;100.00;97252.38;5024620;28;20607;-72
2022/07/13 00:34:02;;;;;;;5.03;2.05;;;;;;;19.12;100.00;97247.47;5025108;28;20488;-72
2022/07/13 00:36:28;;;;;;;4.28;2.25;;;;;;;19.17;100.00;97258.28;5024438;28;20119;-72
2022/07/13 00:38:53;;;;;;;4.18;2.15;;;;;;;19.25;100.00;97251.44;5025326;28;20045;-72
2022/07/13 00:41:19;;;;;;;3.45;2.13;;;;;;;19.34;100.00;97251.63;5025839;28;20021;-72
2022/07/13 00:43:44;;;;;;;3.13;2.20;;;;;;;19.26;100.00;97244.94;5024622;28;20112;-72
2022/07/13 00:46:10;;;;;;;3.45;2.13;;;;;;;19.10;100.00;97252.38;5024385;28;20033;-72
2022/07/13 00:48:38;;;;;;;4.00;2.22;;;;;;;19.02;100.00;97254.91;5022711;28;20134;-72
2022/07/13 00:51:05;;;;;;;4.18;2.10;;;;;;;19.01;100.00;97254.09;5024540;28;20466;-72
2022/07/13 00:53:35;;;;;;;3.92;2.13;;;;;;;19.00;100.00;97252.47;5021684;28;20041;-72
2022/07/13 00:56:02;;;;;;;3.83;2.15;;;;;;;18.90;100.00;97257.94;5025541;28;20043;-72
2022/07/13 00:58:27;;;;;;;4.55;2.40;;;;;;;18.81;100.00;97248.81;5024715;28;20230;-72
2022/07/13 01:00:53;;;;;;;6.55;2.53;;;;;;;18.48;100.00;97250.34;5027450;28;20028;-72
2022/07/13 01:03:18;;;;;;;4.63;2.15;;;;;;;18.42;100.00;97249.56;5023906;28;20424;-72
2022/07/13 01:05:44;;;;;;;4.65;2.50;;;;;;;18.28;100.00;97243.94;5021643;28;20455;-72
2022/07/13 01:08:10;;;;;;;6.95;2.53;;;;;;;18.37;100.00;97246.91;5023578;28;20181;-72
2022/07/13 01:10:36;;;;;;;3.70;2.53;;;;;;;18.35;100.00;97246.34;5025957;28;20599;-72
2022/07/13 01:13:02;;;;;;;4.82;3.03;;;;;;;18.33;100.00;97243.09;5025042;28;20351;-72
2022/07/13 01:15:27;;;;;;;4.18;2.92;;;;;;;18.20;100.00;97239.09;5025265;28;20500;-72
2022/07/13 01:17:54;;;;;;;4.65;2.90;;;;;;;18.26;100.00;97231.78;5020855;28;20440;-72
2022/07/13 01:20:19;;;;;;;7.28;3.03;;;;;;;18.27;100.00;97227.97;5024204;28;20033;-72
2022/07/13 01:22:47;;;;;;;10.23;2.50;;;;;;;18.36;100.00;97216.28;5022056;28;20053;-72
2022/07/13 01:25:14;;;;;;;7.05;2.40;;;;;;;18.48;100.00;97215.94;5021703;28;20504;-72
2022/07/13 01:27:42;;;;;;;4.97;2.55;;;;;;;18.57;100.00;97221.56;5023559;28;20045;-72
2022/07/13 01:30:08;;;;;;;6.05;2.55;;;;;;;18.67;100.00;97216.09;5029969;28;20029;-72
2022/07/13 01:32:46;;;;;;;6.22;2.72;;;;;;;18.70;100.00;97218.25;5022024;28;20041;-72
2022/07/13 01:35:12;;;;;;;3.83;2.65;;;;;;;18.71;100.00;97216.34;5022880;28;20123;-72
2022/07/13 01:37:39;;;;;;;4.82;2.78;;;;;;;18.83;100.00;97211.38;5023498;28;20025;-72
2022/07/13 01:40:05;;;;;;;3.95;2.53;;;;;;;18.82;100.00;97207.84;5022631;28;20036;-72
2022/07/13 01:42:38;;;;;;;4.97;2.83;;;;;;;18.85;100.00;97207.31;5025370;28;20025;-72
2022/07/13 01:45:07;;;;;;;5.10;2.40;;;;;;;18.78;100.00;97212.22;5023727;28;20522;-72
2022/07/13 01:47:36;;;;;;;4.63;2.40;;;;;;;18.82;100.00;97207.03;5020434;28;20029;-72
2022/07/13 01:50:02;;;;;;;4.22;2.58;;;;;;;18.85;100.00;97203.78;5022910;28;20096;-72
2022/07/13 01:52:29;;;;;;;3.70;2.30;;;;;;;18.88;100.00;97200.50;5029334;28;20104;-72
2022/07/13 01:54:55;;;;;;;3.45;2.10;;;;;;;18.91;100.00;97192.63;5023399;28;20113;-72
2022/07/13 01:57:22;;;;;;;3.33;2.20;;;;;;;18.97;100.00;97204.22;5023396;28;20437;-72
2022/07/13 01:59:47;;;;;;;5.22;2.10;;;;;;;19.03;100.00;97194.94;5021951;28;20140;-72
2022/07/13 02:02:12;;;;;;;3.72;2.05;;;;;;;19.06;100.00;97198.97;5020657;28;20044;-72
2022/07/13 02:04:38;;;;;;;3.30;1.90;;;;;;;19.04;100.00;97193.84;5024896;28;20025;-72
2022/07/13 02:07:04;;;;;;;3.65;2.10;;;;;;;19.02;100.00;97196.03;5028070;28;20029;-72
2022/07/13 02:09:29;;;;;;;5.40;1.80;;;;;;;19.03;100.00;97194.94;5029508;28;20036;-72
2022/07/13 02:11:55;;;;;;;2.80;1.90;;;;;;;19.03;100.00;97197.66;5024182;28;20033;-72
2022/07/13 02:14:20;;;;;;;3.63;2.10;;;;;;;19.06;100.00;97188.13;5018800;28;20064;-72
2022/07/13 02:16:45;;;;;;;3.97;2.20;;;;;;;19.00;100.00;97186.59;5023545;28;20029;-72
2022/07/13 02:19:11;;;;;;;4.40;2.28;;;;;;;18.93;100.00;97185.00;5018799;28;20045;-72
2022/07/13 02:21:36;;;;;;;3.28;1.88;;;;;;;18.99;100.00;97174.09;5022027;28;20091;-73
2022/07/13 02:24:02;;;;;;;4.05;2.03;;;;;;;19.03;100.00;97180.56;5036883;28;20174;-72
2022/07/13 02:26:27;;;;;;;3.97;2.20;;;;;;;18.87;100.00;97180.72;5020364;28;20203;-72
2022/07/13 02:28:53;;;;;;;6.15;1.90;;;;;;;18.92;100.00;97182.56;5023373;28;20064;-72
2022/07/13 02:31:19;;;;;;;3.88;2.00;;;;;;;18.95;100.00;97182.00;5016901;28;20414;-72
2022/07/13 02:33:44;;;;;;;3.83;2.33;;;;;;;18.92;100.00;97177.97;5019157;28;20052;-72
2022/07/13 02:36:10;;;;;;;5.93;2.20;;;;;;;18.90;100.00;97182.03;5020819;28;20163;-72
2022/07/13 02:38:35;;;;;;;4.40;2.22;;;;;;;18.89;100.00;97175.81;5020215;28;20624;-72
2022/07/13 02:41:01;;;;;;;3.15;2.00;;;;;;;18.86;100.00;97176.38;5039853;28;20116;-72
2022/07/13 02:43:26;;;;;;;4.13;2.05;;;;;;;18.86;100.00;97175.56;5020009;28;20312;-72
2022/07/13 02:45:52;;;;;;;5.15;2.20;;;;;;;18.84;100.00;97175.06;5018969;28;20132;-72
2022/07/13 02:48:18;;;;;;;3.30;1.92;;;;;;;18.85;100.00;97171.25;5018219;28;20087;-72
2022/07/13 02:50:45;;;;;;;3.35;1.98;;;;;;;18.87;100.00;97167.16;5018112;28;20116;-72
2022/07/13 02:53:10;;;;;;;7.18;2.38;;;;;;;18.78;100.00;97173.47;5020623;28;20029;-73
2022/07/13 02:55:36;;;;;;;5.15;2.20;;;;;;;18.83;100.00;97168.00;5024528;28;20380;-72
2022/07/13 02:58:01;;;;;;;4.07;2.03;;;;;;;18.84;100.00;97169.63;5023074;28;20039;-73
2022/07/13 03:00:28;;;;;;;3.22;2.00;;;;;;;18.90;100.00;97165.75;5017816;28;20025;-73
2022/07/13 03:02:54;;;;;;;3.17;1.95;;;;;;;18.95;100.00;97170.34;5020694;28;20072;-73
2022/07/13 03:05:19;;;;;;;6.00;2.05;;;;;;;18.90;100.00;97171.19;5017380;28;20055;-73
2022/07/13 03:07:45;;;;;;;4.18;2.20;;;;;;;18.85;100.00;97169.34;5021955;28;20110;-73
2022/07/13 03:10:11;;;;;;;4.70;1.98;;;;;;;18.88;100.00;97163.34;5016580;28;20033;-73
2022/07/13 03:12:40;;;;;;;3.20;1.95;;;;;;;18.90;100.00;97157.63;5020153;28;20041;-73
2022/07/13 03:15:06;;;;;;;5.07;1.70;;;;;;;18.80;100.00;97163.16;5021425;28;20557;-73
2022/07/13 03:17:33;;;;;;;3.20;1.70;;;;;;;18.73;100.00;97158.03;5022262;28;20420;-73
2022/07/13 03:20:01;;;;;;;7.43;2.13;;;;;;;18.62;100.00;97159.19;5011098;28;20031;-72
2022/07/13 03:22:28;;;;;;;3.95;1.95;;;;;;;18.61;100.00;97158.41;5007828;28;20542;-73
2022/07/13 03:24:53;;;;;;;5.22;2.10;;;;;;;18.64;100.00;97141.56;5039928;28;20028;-72
2022/07/13 03:27:19;;;;;;;3.10;1.88;;;;;;;18.63;100.00;97131.00;5024634;28;20056;-72
2022/07/13 03:29:44;;;;;;;3.85;1.95;;;;;;;18.61;100.00;97130.47;5027785;28;20048;-73
2022/07/13 03:32:10;;;;;;;3.65;1.98;;;;;;;18.68;100.00;97131.00;5022633;28;20041;-73
2022/07/13 03:34:37;;;;;;;2.83;1.75;;;;;;;18.72;100.00;97131.22;5025085;28;20040;-73
2022/07/13 03:37:02;;;;;;;3.90;1.55;;;;;;;18.75;100.00;97130.66;5023353;28;20045;-72
2022/07/13 03:39:28;;;;;;;4.13;1.90;;;;;;;18.82;100.00;97133.84;5007989;28;20017;-72
2022/07/13 03:41:56;;;;;;;4.30;2.00;;;;;;;18.78;100.00;97143.66;5022733;28;20040;-73
2022/07/13 03:44:22;;;;;;;4.30;2.05;;;;;;;18.78;100.00;97135.53;5023525;28;20191;-73
2022/07/13 03:46:47;;;;;;;3.95;1.90;;;;;;;18.80;100.00;97134.13;5026266;28;20044;-73
2022/07/13 03:49:14;;;;;;;3.53;2.17;;;;;;;18.81;100.00;97134.94;5014049;28;20033;-73
2022/07/13 03:51:41;;;;;;;3.40;1.80;;;;;;;18.79;100.00;97140.66;5022218;28;20098;-73
2022/07/13 03:54:07;;;;;;;3.80;2.10;;;;;;;18.80;100.00;97136.84;5031827;28;20030;-73
2022/07/13 03:56:33;;;;;;;3.15;1.75;;;;;;;18.81;100.00;97135.75;5023036;28;20672;-73
2022/07/13 03:58:59;;;;;;;4.25;1.80;;;;;;;18.86;100.00;97134.91;5023702;28;20041;-73
2022/07/13 04:01:25;;;;;;;2.78;1.50;;;;;;;18.91;100.00;97124.03;5037269;28;20034;-73
2022/07/13 04:03:52;;;;;;;7.97;1.80;;;;;;;19.01;100.00;97134.75;5030208;28;21034;-73
2022/07/13 04:06:18;;;;;;;4.65;1.73;;;;;;;19.01;100.00;97134.75;5039801;28;20025;-73
2022/07/13 04:08:44;;;;;;;2.58;1.73;;;;;;;18.99;100.00;97128.00;5023756;28;20630;-72
2022/07/13 04:11:09;;;;;;;3.50;2.03;;;;;;;18.99;100.00;97133.41;5021569;28;20048;-73
2022/07/13 04:13:35;;;;;;;3.10;1.75;;;;;;;18.91;100.00;97124.03;5025283;28;20033;-73
2022/07/13 04:16:00;;;;;;;5.75;1.88;;;;;;;18.87;100.00;97120.25;5030838;28;20040;-73
2022/07/13 04:18:30;;;;;;;2.92;1.60;;;;;;;18.94;100.00;97120.72;5020239;28;20021;-73
2022/07/13 04:20:56;;;;;;;7.78;1.73;;;;;;;18.91;100.00;97132.16;5022641;28;20046;-73
2022/07/13 04:23:22;;;;;;;3.03;1.58;;;;;;;18.95;100.00;97133.19;5020828;28;20032;-73
2022/07/13 04:25:48;;;;;;;4.50;1.80;;;;;;;19.05;100.00;97132.28;5038220;28;20037;-73
2022/07/13 04:28:13;;;;;;;3.88;1.70;;;;;;;19.11;100.00;97139.28;5025067;28;20032;-73
2022/07/13 04:30:39;;;;;;;3.25;1.70;;;;;;;19.17;100.00;97146.28;5022967;28;20041;-74
2022/07/13 04:33:04;;;;;;;3.72;1.60;;;;;;;19.23;100.00;97144.31;5029803;28;20068;-74
2022/07/13 04:35:31;;;;;;;3.25;1.33;;;;;;;19.31;100.00;97132.84;5024766;28;20041;-73
2022/07/13 04:37:56;;;;;;;3.05;1.50;;;;;;;19.33;100.00;97136.88;5028433;28;20395;-73
2022/07/13 04:40:23;;;;;;;2.63;1.38;;;;;;;19.35;100.00;97133.88;5010408;28;20307;-73
2022/07/13 04:42:49;;;;;;;3.53;1.58;;;;;;;19.37;100.00;97142.53;5005689;28;20029;-73
2022/07/13 04:45:18;;;;;;;2.83;1.42;;;;;;;19.41;100.00;97132.72;5034529;28;20026;-73
2022/07/13 04:47:45;;;;;;;3.13;1.63;;;;;;;19.47;100.00;97131.56;5029231;28;20667;-73
2022/07/13 04:50:11;;;;;;;2.58;1.42;;;;;;;19.58;100.00;97135.00;5018557;28;20392;-73
2022/07/13 04:52:37;;;;;;;2.78;1.63;;;;;;;19.73;100.00;97134.81;5039493;28;20072;-73
2022/07/13 04:55:03;;;;;;;3.08;1.55;;;;;;;19.84;100.00;97135.47;5038790;28;20044;-73
2022/07/13 04:57:30;;;;;;;3.28;1.50;;;;;;;19.91;100.00;97131.31;5031600;28;20041;-73
2022/07/13 04:59:56;;;;;;;4.28;1.52;;;;;;;19.98;100.00;97133.66;5022588;28;20052;-73
2022/07/13 05:02:21;;;;;;;2.65;1.50;;;;;;;19.95;100.00;97134.25;5036369;28;20364;-73
2022/07/13 05:04:47;;;;;;;3.08;1.42;;;;;;;19.86;100.00;97134.09;5021979;28;20057;-73
2022/07/13 05:07:13;;;;;;;2.80;1.50;;;;;;;19.78;100.00;97137.47;5021080;28;20090;-73
2022/07/13 05:09:39;;;;;;;3.03;1.55;;;;;;;19.78;100.00;97140.19;5040383;28;20151;-73
2022/07/13 05:12:05;;;;;;;2.70;1.50;;;;;;;19.80;100.00;97131.75;5029187;28;20428;-73
2022/07/13 05:14:31;;;;;;;3.95;1.95;;;;;;;19.81;100.00;97130.63;5029764;28;20044;-73
2022/07/13 05:16:57;;;;;;;3.45;1.48;;;;;;;19.88;100.00;97123.75;5027578;28;20033;-73
2022/07/13 05:19:22;;;;;;;3.22;1.40;;;;;;;19.88;100.00;97126.47;5016465;28;20234;-73
2022/07/13 05:21:49;;;;;;;5.95;1.50;;;;;;;20.03;100.00;97122.75;5031396;28;20040;-73
2022/07/13 05:24:15;;;;;;;2.55;1.45;;;;;;;20.07;100.00;97131.09;5014763;28;20041;-74
2022/07/13 05:26:41;;;;;;;3.28;1.20;;;;;;;20.17;100.00;97129.06;5024500;28;20029;-73
2022/07/13 05:29:07;;;;;;;4.35;1.40;;;;;;;20.25;100.00;97130.31;5016766;28;20029;-74
2022/07/13 05:31:35;;;;;;;2.50;1.30;;;;;;;20.34;100.00;97123.09;5024057;28;20377;-73
2022/07/13 05:34:02;;;;;;;4.15;1.27;;;;;;;20.37;100.00;97117.06;5013759;28;20042;-74
2022/07/13 05:36:31;;;;;;;2.08;1.10;;;;;;;20.42;100.00;97119.72;5022529;28;20033;-73
2022/07/13 05:38:57;;;;;;;4.45;1.63;;;;;;;20.44;100.00;97131.13;5019288;28;20045;-75
2022/07/13 05:41:23;;;;;;;3.70;1.30;;;;;;;20.43;100.00;97125.97;5024890;28;20044;-73
2022/07/13 05:43:48;;;;;;;3.22;1.30;;;;;;;20.50;100.00;97126.44;5018531;28;20030;-73
2022/07/13 05:46:14;;;;;;;2.88;1.30;;;;;;;20.54;100.00;97130.16;5035577;28;20032;-74
2022/07/13 05:48:40;;;;;;;3.92;1.40;;;;;;;20.58;100.00;97128.47;5025192;28;20064;-74
2022/07/13 05:51:06;;;;;;;2.33;1.10;;;;;;;20.58;100.00;97123.84;5027333;28;20152;-72
2022/07/13 05:53:33;;;;;;;5.70;1.35;;;;;;;20.73;100.00;97128.22;5036693;28;20384;-72
2022/07/13 05:55:58;;;;;;;3.08;1.20;;;;;;;20.77;100.00;97129.22;5022831;28;20041;-73
2022/07/13 05:58:24;;;;;;;3.97;1.15;;;;;;;20.76;100.00;97130.34;5026235;28;20040;-73
2022/07/13 06:00:49;;;;;;;6.03;1.30;;;;;;;20.78;99.51;97122.72;5025344;28;20036;-74
2022/07/13 06:03:15;;;;;;;3.08;1.10;;;;;;;20.88;100.00;97126.34;5022709;28;20080;-73
2022/07/13 06:05:40;;;;;;;4.30;1.20;;;;;;;20.97;98.30;97127.28;5022069;28;20747;-72
2022/07/13 06:08:06;;;;;;;4.05;1.08;;;;;;;20.98;94.02;97126.97;5019898;28;20708;-74
2022/07/13 06:10:31;;;;;;;4.38;1.08;;;;;;;21.13;95.93;97125.91;5020201;28;20181;-73
2022/07/13 06:12:57;;;;;;;4.65;1.30;;;;;;;21.07;92.58;97122.44;5023484;28;20047;-73
2022/07/13 06:15:22;;;;;;;4.20;1.10;;;;;;;20.98;90.98;97118.00;5020803;28;20033;-73
2022/07/13 06:17:48;;;;;;;3.58;1.20;;;;;;;20.97;93.84;97125.38;5023507;28;20095;-74
2022/07/13 06:20:13;;;;;;;4.20;1.20;;;;;;;20.84;91.60;97118.78;5021968;28;20436;-74
2022/07/13 06:22:39;;;;;;;2.42;1.00;;;;;;;20.96;93.10;97123.75;5025656;28;20064;-74
2022/07/13 06:25:04;;;;;;;2.95;1.20;;;;;;;21.07;92.27;97119.72;5023980;28;20036;-74
2022/07/13 06:27:30;;;;;;;3.72;1.08;;;;;;;21.13;93.21;97117.72;5019820;28;20332;-73
2022/07/13 06:29:56;;;;;;;2.38;1.13;;;;;;;21.11;91.62;97114.50;5022777;28;20111;-73
2022/07/13 06:32:22;;;;;;;3.67;1.30;;;;;;;21.14;92.06;97108.47;5021565;28;20064;-74
2022/07/13 06:34:47;;;;;;;4.18;1.00;;;;;;;21.20;93.12;97109.97;5024455;28;20837;-73
2022/07/13 06:37:13;;;;;;;3.25;1.15;;;;;;;21.27;93.31;97106.88;5022039;28;20508;-73
2022/07/13 06:39:38;;;;;;;4.65;1.15;;;;;;;21.20;92.96;97112.72;5021797;28;20476;-74
2022/07/13 06:42:04;;;;;;;3.47;1.13;;;;;;;21.04;94.33;97114.09;5023204;28;20036;-74
2022/07/13 06:44:30;;;;;;;2.75;1.10;;;;;;;21.05;95.84;97112.97;5020158;28;20044;-73
2022/07/13 06:46:59;;;;;;;5.05;1.20;;;;;;;21.04;97.73;97130.41;5021928;28;20049;-73
2022/07/13 06:49:26;;;;;;;3.63;1.38;;;;;;;20.96;100.00;97122.94;5019773;28;21301;-74
2022/07/13 06:51:55;;;;;;;3.10;1.20;;;;;;;20.96;99.82;97133.81;5025287;28;20044;-73
2022/07/13 06:54:20;;;;;;;4.38;1.30;;;;;;;21.00;100.00;97141.06;5024127;28;20233;-74
2022/07/13 06:56:46;;;;;;;7.07;1.67;;;;;;;21.07;100.00;97140.69;5023228;28;20522;-74
2022/07/13 06:59:11;;;;;;;2.85;1.30;;;;;;;21.10;100.00;97145.56;5023514;28;20461;-73
2022/07/13 07:01:37;;;;;;;4.30;1.30;;;;;;;21.18;100.00;97147.59;5020671;28;20041;-74
2022/07/13 07:04:02;;;;;;;4.57;1.27;;;;;;;21.37;100.00;97137.44;5022089;28;20041;-73
2022/07/13 07:06:28;;;;;;;2.70;1.27;;;;;;;21.49;100.00;97125.25;5020654;28;20064;-74
2022/07/13 07:08:53;;;;;;;7.70;1.35;;;;;;;21.72;100.00;97124.25;5027968;28;20037;-74
2022/07/13 07:11:19;;;;;;;4.97;1.42;;;;;;;21.76;100.00;97119.78;5022181;28;20091;-74
2022/07/13 07:13:44;;;;;;;4.18;1.40;;;;;;;21.81;100.00;97122.41;5021345;28;20083;-74
2022/07/13 07:16:10;;;;;;;5.28;1.50;;;;;;;21.69;100.00;97122.91;5021352;28;20175;-73
2022/07/13 07:18:35;;;;;;;4.47;1.30;;;;;;;21.44;100.00;97125.34;5022181;28;20030;-74
2022/07/13 07:21:00;;;;;;;5.55;1.40;;;;;;;21.35;100.00;97123.34;5022598;28;20372;-73
2022/07/13 07:23:26;;;;;;;3.15;1.27;;;;;;;21.17;100.00;97124.19;5020621;28;20181;-74
2022/07/13 07:25:52;;;;;;;8.35;1.30;;;;;;;21.02;100.00;97128.00;5024480;28;20049;-74
2022/07/13 07:28:17;;;;;;;3.28;1.30;;;;;;;21.09;100.00;97127.63;5021071;28;20038;-74
2022/07/13 07:30:43;;;;;;;3.67;1.27;;;;;;;20.99;100.00;97123.16;5021927;28;20095;-73
2022/07/13 07:33:08;;;;;;;3.33;1.60;;;;;;;20.82;100.00;97128.34;5020497;28;20064;-74
2022/07/13 07:35:34;;;;;;;3.17;1.27;;;;;;;20.88;100.00;97129.06;5024269;28;20232;-74
2022/07/13 07:37:59;;;;;;;4.50;1.40;;;;;;;20.83;100.00;97122.59;5022406;28;20040;-73
2022/07/13 07:40:25;;;;;;;3.65;1.40;;;;;;;21.14;100.00;97111.19;5018433;28;20045;-74
2022/07/13 07:42:50;;;;;;;2.70;1.27;;;;;;;21.42;100.00;97121.03;5022877;28;20021;-74
2022/07/13 07:45:18;;;;;;;3.72;1.25;;;;;;;21.76;100.00;97122.50;5022718;28;20040;-74
2022/07/13 07:47:44;;;;;;;3.83;1.38;;;;;;;22.21;100.00;97117.22;5024054;28;20064;-73
2022/07/13 07:50:09;;;;;;;6.18;1.52;;;;;;;22.48;100.00;97119.03;5022338;28;20037;-73
2022/07/13 07:52:35;;;;;;;3.28;1.42;;;;;;;22.49;100.00;97121.47;5028746;28;20258;-73
2022/07/13 07:55:01;;;;;;;6.88;1.38;;;;;;;22.55;100.00;97121.31;5022825;28;20033;-73
2022/07/13 07:57:26;;;;;;;9.27;1.40;;;;;;;22.42;100.00;97109.38;5020005;28;20029;-73
2022/07/13 07:59:52;;;;;;;6.30;1.70;;;;;;;22.43;100.00;97113.72;5023619;28;20041;-73
2022/07/13 08:02:17;;;;;;;4.60;1.40;;;;;;;22.37;99.63;97113.03;5026096;28;20249;-73
2022/07/13 08:04:44;;;;;;;4.22;1.23;;;;;;;22.66;99.57;97109.06;5023633;28;20029;-73
2022/07/13 08:07:10;;;;;;;2.55;1.20;;;;;;;22.77;92.15;97105.75;5027445;28;20035;-73
2022/07/13 08:09:36;;;;;;;6.97;1.25;;;;;;;22.78;93.41;97099.19;5021521;28;20045;-74
2022/07/13 08:12:04;;;;;;;3.17;1.30;;;;;;;23.16;92.34;97104.25;4997575;28;20063;-73
2022/07/13 08:14:30;;;;;;;7.97;1.15;;;;;;;23.24;90.42;97100.75;5024638;28;20097;-73
2022/07/13 08:16:55;;;;;;;4.20;1.25;;;;;;;23.38;90.67;97105.31;5026527;28;20064;-73
2022/07/13 08:19:21;;;;;;;6.68;1.20;;;;;;;23.22;90.35;97113.13;5022248;28;20244;-73
2022/07/13 08:21:46;;;;;;;6.57;1.13;;;;;;;23.26;88.40;97103.97;5022712;28;20045;-73
2022/07/13 08:24:12;;;;;;;6.22;1.30;;;;;;;23.26;88.44;97105.91;5027648;28;20036;-73
2022/07/13 08:26:37;;;;;;;4.40;1.38;;;;;;;23.37;89.66;97106.44;5032468;28;20392;-73
2022/07/13 08:29:03;;;;;;;2.65;1.20;;;;;;;23.37;90.19;97106.44;5026593;28;20102;-73
2022/07/13 08:31:29;;;;;;;4.90;1.20;;;;;;;23.40;89.96;97106.59;5025120;28;20128;-73
2022/07/13 08:39:25;;;;;;;5.43;1.20;;;;;;;23.76;87.72;97109.16;5021043;28;20051;-73
2022/07/13 08:41:50;;;;;;;4.78;0.93;;;;;;;23.63;87.34;97099.97;5024977;28;20083;-73
2022/07/13 08:44:16;;;;;;;3.42;1.08;;;;;;;24.46;85.60;97088.19;5021543;28;20033;-75
2022/07/13 08:46:43;;;;;;;4.80;1.02;;;;;;;24.73;83.22;97082.34;5028018;28;20065;-73
2022/07/13 08:49:09;;;;;;;6.32;1.30;;;;;;;24.71;83.03;97076.41;5022385;28;20480;-73
2022/07/13 08:51:35;;;;;;;3.08;1.35;;;;;;;24.63;83.51;97084.63;5025717;28;20037;-73
2022/07/13 08:54:04;;;;;;;4.05;1.08;;;;;;;24.62;81.17;97086.56;5024935;28;20048;-73
2022/07/13 08:56:31;;;;;;;3.83;1.25;;;;;;;24.62;83.24;97085.78;5025000;28;20380;-73
2022/07/13 08:58:57;;;;;;;4.13;1.05;;;;;;;24.76;82.68;97091.06;5022832;28;20124;-73
2022/07/13 09:01:22;;;;;;;2.90;1.27;;;;;;;24.38;84.15;97078.06;5021887;28;20545;-73
2022/07/13 09:03:48;;;;;;;2.90;1.20;;;;;;;24.45;84.74;97081.94;4993795;28;20057;-73
2022/07/13 09:06:38;;;;;;;9.73;1.20;;;;;;;25.13;84.87;97079.38;5022333;28;20095;-73
2022/07/13 09:09:22;;;;;;;4.00;1.20;;;;;;;25.37;80.16;97083.47;5022021;28;20116;-74
2022/07/13 09:11:47;;;;;;;5.28;1.38;;;;;;;25.56;79.93;97076.47;5025999;28;20038;-74
2022/07/13 09:14:26;;;;;;;2.72;1.40;;;;;;;25.36;78.61;97079.13;5022168;28;20316;-74
2022/07/13 09:16:52;;;;;;;7.03;1.30;;;;;;;25.68;80.21;97084.00;5024240;28;20064;-73
2022/07/13 09:19:18;;;;;;;2.80;1.33;;;;;;;26.44;79.78;97077.53;5023233;28;20056;-74
2022/07/13 09:21:44;;;;;;;9.20;1.48;;;;;;;26.82;77.46;97088.31;5024493;28;20099;-73
2022/07/13 09:24:11;;;;;;;2.42;1.20;;;;;;;26.72;73.35;97080.50;5022968;28;20037;-73
2022/07/13 09:26:41;;;;;;;3.85;1.10;;;;;;;26.42;69.20;97081.75;5025641;28;20040;-73
2022/07/13 09:29:07;;;;;;;6.18;1.20;;;;;;;26.28;74.48;97090.22;5023989;28;20387;-73
2022/07/13 09:31:50;;;;;;;2.55;1.20;;;;;;;26.13;73.02;97082.59;5024370;28;20291;-73
2022/07/13 09:34:16;;;;;;;2.85;1.25;;;;;;;26.31;73.22;97075.84;5022108;28;20064;-74
2022/07/13 09:36:42;;;;;;;3.25;1.13;;;;;;;26.54;73.17;97077.13;5027109;28;20022;-73
2022/07/13 09:39:10;;;;;;;8.80;1.35;;;;;;;26.79;74.21;97082.69;5024305;28;20044;-73
2022/07/13 09:41:36;;;;;;;5.63;1.20;;;;;;;26.77;75.79;97073.97;5024280;28;20323;-73
2022/07/13 09:46:52;;;;;;;5.35;1.58;;;;;;;27.83;74.29;97078.72;5023418;28;20040;-73
2022/07/13 09:49:19;;;;;;;5.22;1.95;;;;;;;27.62;70.06;97089.81;5019809;28;20076;-74
2022/07/13 09:51:45;;;;;;;3.28;1.40;;;;;;;27.67;63.18;97095.13;5021971;28;20530;-73
2022/07/13 09:54:11;;;;;;;4.57;1.40;;;;;;;27.93;66.46;97092.00;5021856;28;20025;-73
2022/07/13 09:56:43;;;;;;;5.15;1.20;;;;;;;28.51;59.29;97093.41;4136248;28;10000905;-73
2022/07/13 09:59:08;;;;;;;2.97;1.50;;;;;;;28.45;59.37;97085.72;5021041;28;20487;-73
2022/07/13 10:01:35;;;;;;;5.53;1.65;;;;;;;28.06;54.23;97101.06;4998669;28;20032;-74
2022/07/13 10:04:02;;;;;;;3.38;1.40;;;;;;;27.98;56.99;97089.81;5021879;28;20041;-73
2022/07/13 10:06:27;;;;;;;4.85;1.50;;;;;;;28.01;56.88;97102.88;5020901;28;20037;-72
2022/07/13 10:08:54;;;;;;;2.35;1.20;;;;;;;27.59;56.42;97090.50;5023803;28;20511;-73
2022/07/13 10:11:20;;;;;;;3.90;1.33;;;;;;;27.05;62.14;97094.22;5021592;28;20079;-72
2022/07/13 10:13:46;;;;;;;3.33;1.45;;;;;;;27.57;62.89;97092.81;5023466;28;20115;-73
2022/07/13 10:16:12;;;;;;;11.68;1.38;;;;;;;27.99;56.96;97094.19;5023843;28;20051;-73
2022/07/13 10:18:41;;;;;;;4.90;1.42;;;;;;;28.39;51.73;97076.13;5021375;28;20043;-73
2022/07/13 10:21:16;;;;;;;3.65;1.35;;;;;;;28.70;45.36;97083.69;5022498;28;20710;-74
2022/07/13 10:23:42;;;;;;;4.53;1.50;;;;;;;28.76;49.61;97087.78;5022129;28;20246;-73
2022/07/13 10:26:21;;;;;;;6.70;1.27;;;;;;;28.78;44.91;97086.28;5017407;28;20516;-74
2022/07/13 10:29:10;;;;;;;4.43;1.38;;;;;;;29.00;46.28;97073.91;5028321;28;20048;-72
2022/07/13 10:31:36;;;;;;;2.67;1.10;;;;;;;28.74;48.33;97082.63;5021672;28;20056;-73
2022/07/13 10:34:03;;;;;;;8.20;1.30;;;;;;;28.86;46.17;97076.25;5022353;28;20045;-73
2022/07/13 10:36:47;;;;;;;4.90;1.30;;;;;;;29.17;46.95;97083.78;5023669;28;20051;-72
2022/07/13 10:39:14;;;;;;;5.07;1.40;;;;;;;29.27;46.34;97071.47;5022758;28;20032;-72
2022/07/13 10:41:58;;;;;;;3.95;1.40;;;;;;;29.46;44.63;97073.50;5024031;28;20407;-73
2022/07/13 10:44:36;;;;;;;3.55;1.38;;;;;;;30.07;42.09;97070.22;5019918;28;20144;-72
2022/07/13 10:47:06;;;;;;;3.70;1.30;;;;;;;29.97;46.82;97060.56;5024733;28;20488;-73
2022/07/13 10:49:32;;;;;;;4.72;1.40;;;;;;;30.35;45.93;97072.81;4296659;28;10000438;-74
2022/07/13 10:52:27;;;;;;;4.82;1.30;;;;;;;30.56;44.36;97075.22;4997909;28;20118;-73
2022/07/13 10:55:11;;;;;;;3.15;1.30;;;;;;;30.57;43.18;97066.56;5018896;28;20045;-73
2022/07/13 10:57:43;;;;;;;2.83;1.30;;;;;;;30.36;43.48;97066.16;5018537;28;20041;-73
2022/07/13 11:00:24;;;;;;;6.65;1.27;;;;;;;30.55;40.71;97071.66;5021378;28;20040;-73
2022/07/13 11:03:01;;;;;;;;;;;;;;;30.77;40.45;97062.66;5020964;28;20454;-73
2022/07/13 11:05:30;;;;;;;2.40;1.20;;;;;;;30.71;37.67;97064.13;5016126;28;20038;-73
2022/07/13 11:07:57;;;;;;;7.25;1.33;;;;;;;30.36;38.42;97064.19;5019821;28;20099;-73
2022/07/13 11:10:28;;;;;;;5.22;1.70;;;;;;;30.31;38.40;97058.16;5017726;28;20033;-74
2022/07/13 11:12:58;;;;;;;2.55;1.17;;;;;;;30.77;39.45;97059.91;5019839;28;20034;-74
2022/07/13 11:15:40;;;;;;;;;;;;;;;30.11;37.29;97060.88;5019196;28;20353;-74
2022/07/13 11:18:21;;;;;;;6.00;1.55;;;;;;;30.41;37.39;97054.78;5019672;28;19979;-73
2022/07/13 11:20:59;;;;;;;4.30;1.67;;;;;;;30.95;37.16;97053.91;5011585;28;20037;-73
2022/07/13 11:26:22;;;;;;;8.77;1.50;;;;;;;31.65;33.13;97056.28;5016662;28;20041;-73
2022/07/13 11:29:13;;;;;;;9.48;1.52;;;;;;;31.63;33.13;97049.56;5021294;28;20033;-73
2022/07/13 11:31:39;;;;;;;7.65;1.50;;;;;;;33.79;29.79;97050.50;5030597;28;20152;-73
2022/07/13 11:34:06;;;;;;;5.55;1.58;;;;;;;33.68;28.27;97041.28;5016203;28;20111;-73
2022/07/13 11:36:33;;;;;;;8.05;1.58;;;;;;;35.64;27.00;97033.66;5021225;28;20029;-73
2022/07/13 11:38:58;;;;;;;5.47;1.33;;;;;;;34.04;28.17;97028.47;5024757;28;20033;-73